sensor_id;sensor_type;location;lat;lon;timestamp;P1;durP1;ratioP1;P2;durP2;ratioP2
15526;SDS011;7865;50.918;4.510;2023-03-03T00:04:49;34.23;;;17.90;;
15526;SDS011;7865;50.918;4.510;2023-03-03T00:09:51;34.27;;;17.80;;
15526;SDS011;7865;50.918;4.510;2023-03-03T00:14:54;31.87;;;16.30;;
15526;SDS011;7865;50.918;4.510;2023-03-03T00:19:56;32.37;;;17.00;;
15526;SDS011;7865;50.918;4.510;2023-03-03T00:30:25;32.90;;;17.10;;
15526;SDS011;7865;50.918;4.510;2023-03-03T00:35:29;44.37;;;16.93;;
15526;SDS011;7865;50.918;4.510;2023-03-03T00:40:39;30.23;;;16.57;;
15526;SDS011;7865;50.918;4.510;2023-03-03T00:45:45;37.33;;;17.87;;
15526;SDS011;7865;50.918;4.510;2023-03-03T00:50:51;32.37;;;17.10;;
15526;SDS011;7865;50.918;4.510;2023-03-03T00:55:55;30.93;;;16.27;;
15526;SDS011;7865;50.918;4.510;2023-03-03T01:00:58;35.33;;;17.20;;
15526;SDS011;7865;50.918;4.510;2023-03-03T01:06:10;31.27;;;16.93;;
15526;SDS011;7865;50.918;4.510;2023-03-03T01:11:20;31.83;;;16.40;;
15526;SDS011;7865;50.918;4.510;2023-03-03T01:16:25;30.97;;;17.27;;
15526;SDS011;7865;50.918;4.510;2023-03-03T01:21:27;35.43;;;17.80;;
15526;SDS011;7865;50.918;4.510;2023-03-03T01:26:29;31.17;;;16.67;;
15526;SDS011;7865;50.918;4.510;2023-03-03T01:31:32;34.20;;;17.63;;
15526;SDS011;7865;50.918;4.510;2023-03-03T01:36:34;36.77;;;18.17;;
15526;SDS011;7865;50.918;4.510;2023-03-03T01:41:37;34.57;;;18.00;;
15526;SDS011;7865;50.918;4.510;2023-03-03T01:51:57;32.87;;;18.60;;
15526;SDS011;7865;50.918;4.510;2023-03-03T01:57:03;32.27;;;18.70;;
15526;SDS011;7865;50.918;4.510;2023-03-03T02:02:07;36.73;;;18.33;;
15526;SDS011;7865;50.918;4.510;2023-03-03T02:07:10;42.07;;;20.53;;
15526;SDS011;7865;50.918;4.510;2023-03-03T02:12:14;38.70;;;20.73;;
15526;SDS011;7865;50.918;4.510;2023-03-03T02:17:18;36.33;;;19.67;;
15526;SDS011;7865;50.918;4.510;2023-03-03T02:22:22;38.50;;;19.67;;
15526;SDS011;7865;50.918;4.510;2023-03-03T02:27:46;38.87;;;19.30;;
15526;SDS011;7865;50.918;4.510;2023-03-03T02:32:48;43.33;;;21.70;;
15526;SDS011;7865;50.918;4.510;2023-03-03T02:37:51;43.70;;;22.23;;
15526;SDS011;7865;50.918;4.510;2023-03-03T02:42:53;42.50;;;20.00;;
15526;SDS011;7865;50.918;4.510;2023-03-03T02:47:57;45.83;;;22.80;;
15526;SDS011;7865;50.918;4.510;2023-03-03T02:52:59;46.17;;;22.33;;
15526;SDS011;7865;50.918;4.510;2023-03-03T02:58:02;49.00;;;23.30;;
15526;SDS011;7865;50.918;4.510;2023-03-03T03:03:05;55.87;;;26.00;;
15526;SDS011;7865;50.918;4.510;2023-03-03T03:08:08;57.40;;;27.37;;
15526;SDS011;7865;50.918;4.510;2023-03-03T03:13:10;69.53;;;30.60;;
15526;SDS011;7865;50.918;4.510;2023-03-03T03:18:15;64.87;;;31.00;;
15526;SDS011;7865;50.918;4.510;2023-03-03T03:23:19;63.37;;;29.80;;
15526;SDS011;7865;50.918;4.510;2023-03-03T03:28:24;54.67;;;27.77;;
15526;SDS011;7865;50.918;4.510;2023-03-03T03:33:27;55.40;;;27.67;;
15526;SDS011;7865;50.918;4.510;2023-03-03T03:38:31;65.80;;;29.27;;
15526;SDS011;7865;50.918;4.510;2023-03-03T03:43:34;61.27;;;27.80;;
15526;SDS011;7865;50.918;4.510;2023-03-03T03:48:37;62.90;;;28.87;;
15526;SDS011;7865;50.918;4.510;2023-03-03T03:53:41;53.83;;;27.77;;
15526;SDS011;7865;50.918;4.510;2023-03-03T03:58:43;53.77;;;26.60;;
15526;SDS011;7865;50.918;4.510;2023-03-03T04:03:48;60.63;;;27.80;;
15526;SDS011;7865;50.918;4.510;2023-03-03T04:08:54;62.07;;;28.10;;
15526;SDS011;7865;50.918;4.510;2023-03-03T04:13:59;61.03;;;27.70;;
15526;SDS011;7865;50.918;4.510;2023-03-03T04:19:01;62.30;;;28.47;;
15526;SDS011;7865;50.918;4.510;2023-03-03T04:24:06;57.10;;;25.93;;
15526;SDS011;7865;50.918;4.510;2023-03-03T04:29:08;57.23;;;27.43;;
15526;SDS011;7865;50.918;4.510;2023-03-03T04:34:12;64.13;;;27.83;;
15526;SDS011;7865;50.918;4.510;2023-03-03T04:39:15;58.57;;;26.93;;
15526;SDS011;7865;50.918;4.510;2023-03-03T04:44:16;57.33;;;27.23;;
15526;SDS011;7865;50.918;4.510;2023-03-03T04:49:19;57.73;;;25.77;;
15526;SDS011;7865;50.918;4.510;2023-03-03T04:54:21;60.60;;;28.67;;
15526;SDS011;7865;50.918;4.510;2023-03-03T04:59:24;57.47;;;25.93;;
15526;SDS011;7865;50.918;4.510;2023-03-03T05:04:26;56.53;;;26.00;;
15526;SDS011;7865;50.918;4.510;2023-03-03T05:09:29;51.90;;;24.47;;
15526;SDS011;7865;50.918;4.510;2023-03-03T05:14:31;51.53;;;25.20;;
15526;SDS011;7865;50.918;4.510;2023-03-03T05:19:33;51.87;;;23.13;;
15526;SDS011;7865;50.918;4.510;2023-03-03T05:24:35;44.40;;;22.23;;
15526;SDS011;7865;50.918;4.510;2023-03-03T05:29:37;51.00;;;23.80;;
15526;SDS011;7865;50.918;4.510;2023-03-03T05:34:40;44.67;;;22.87;;
15526;SDS011;7865;50.918;4.510;2023-03-03T05:39:42;46.53;;;22.80;;
15526;SDS011;7865;50.918;4.510;2023-03-03T05:44:45;46.83;;;22.93;;
15526;SDS011;7865;50.918;4.510;2023-03-03T05:49:47;43.50;;;23.03;;
15526;SDS011;7865;50.918;4.510;2023-03-03T05:54:49;48.57;;;24.60;;
15526;SDS011;7865;50.918;4.510;2023-03-03T05:59:51;45.93;;;22.93;;
15526;SDS011;7865;50.918;4.510;2023-03-03T06:04:53;42.10;;;22.83;;
15526;SDS011;7865;50.918;4.510;2023-03-03T06:09:55;45.90;;;23.50;;
15526;SDS011;7865;50.918;4.510;2023-03-03T06:14:59;44.47;;;23.37;;
15526;SDS011;7865;50.918;4.510;2023-03-03T06:20:01;46.47;;;23.73;;
15526;SDS011;7865;50.918;4.510;2023-03-03T06:25:04;49.20;;;23.87;;
15526;SDS011;7865;50.918;4.510;2023-03-03T06:30:07;48.67;;;24.57;;
15526;SDS011;7865;50.918;4.510;2023-03-03T06:35:09;53.33;;;25.70;;
15526;SDS011;7865;50.918;4.510;2023-03-03T06:40:11;48.07;;;23.43;;
15526;SDS011;7865;50.918;4.510;2023-03-03T06:45:14;49.80;;;23.33;;
15526;SDS011;7865;50.918;4.510;2023-03-03T06:50:17;48.17;;;23.73;;
15526;SDS011;7865;50.918;4.510;2023-03-03T06:55:22;49.87;;;24.23;;
15526;SDS011;7865;50.918;4.510;2023-03-03T07:00:25;59.53;;;25.30;;
15526;SDS011;7865;50.918;4.510;2023-03-03T07:05:31;56.23;;;24.53;;
15526;SDS011;7865;50.918;4.510;2023-03-03T07:10:34;54.50;;;24.80;;
15526;SDS011;7865;50.918;4.510;2023-03-03T07:15:37;55.13;;;24.70;;
15526;SDS011;7865;50.918;4.510;2023-03-03T07:20:38;54.33;;;24.93;;
15526;SDS011;7865;50.918;4.510;2023-03-03T07:25:41;52.23;;;24.93;;
15526;SDS011;7865;50.918;4.510;2023-03-03T07:30:46;50.70;;;24.50;;
15526;SDS011;7865;50.918;4.510;2023-03-03T07:35:49;56.93;;;23.67;;
15526;SDS011;7865;50.918;4.510;2023-03-03T07:40:52;46.67;;;24.30;;
15526;SDS011;7865;50.918;4.510;2023-03-03T07:46:16;52.80;;;25.03;;
15526;SDS011;7865;50.918;4.510;2023-03-03T07:51:44;52.73;;;24.37;;
15526;SDS011;7865;50.918;4.510;2023-03-03T07:56:46;48.97;;;22.87;;
15526;SDS011;7865;50.918;4.510;2023-03-03T08:01:52;43.23;;;21.47;;
15526;SDS011;7865;50.918;4.510;2023-03-03T08:06:57;47.30;;;20.00;;
15526;SDS011;7865;50.918;4.510;2023-03-03T08:17:22;39.27;;;19.57;;
15526;SDS011;7865;50.918;4.510;2023-03-03T08:27:36;39.20;;;19.60;;
15526;SDS011;7865;50.918;4.510;2023-03-03T08:32:38;40.27;;;18.57;;
15526;SDS011;7865;50.918;4.510;2023-03-03T08:37:40;59.20;;;20.23;;
15526;SDS011;7865;50.918;4.510;2023-03-03T08:42:42;41.93;;;19.13;;
15526;SDS011;7865;50.918;4.510;2023-03-03T08:47:44;39.13;;;19.57;;
15526;SDS011;7865;50.918;4.510;2023-03-03T08:52:46;35.57;;;19.13;;
15526;SDS011;7865;50.918;4.510;2023-03-03T08:57:49;38.33;;;18.53;;
15526;SDS011;7865;50.918;4.510;2023-03-03T09:02:51;38.60;;;18.90;;
15526;SDS011;7865;50.918;4.510;2023-03-03T09:07:53;42.57;;;18.13;;
15526;SDS011;7865;50.918;4.510;2023-03-03T09:12:57;36.93;;;17.73;;
15526;SDS011;7865;50.918;4.510;2023-03-03T09:18:15;37.90;;;16.77;;
15526;SDS011;7865;50.918;4.510;2023-03-03T09:28:43;42.53;;;18.13;;
15526;SDS011;7865;50.918;4.510;2023-03-03T09:33:46;36.80;;;17.97;;
15526;SDS011;7865;50.918;4.510;2023-03-03T09:38:50;37.50;;;17.87;;
15526;SDS011;7865;50.918;4.510;2023-03-03T10:00:10;39.40;;;18.37;;
15526;SDS011;7865;50.918;4.510;2023-03-03T10:05:24;37.87;;;18.13;;
15526;SDS011;7865;50.918;4.510;2023-03-03T10:11:01;37.77;;;18.17;;
15526;SDS011;7865;50.918;4.510;2023-03-03T10:16:38;38.17;;;19.17;;
15526;SDS011;7865;50.918;4.510;2023-03-03T10:22:17;37.73;;;17.37;;
15526;SDS011;7865;50.918;4.510;2023-03-03T10:27:42;37.40;;;17.53;;
15526;SDS011;7865;50.918;4.510;2023-03-03T10:32:59;36.23;;;18.37;;
15526;SDS011;7865;50.918;4.510;2023-03-03T10:38:15;34.47;;;17.80;;
15526;SDS011;7865;50.918;4.510;2023-03-03T10:44:42;33.47;;;17.03;;
15526;SDS011;7865;50.918;4.510;2023-03-03T11:16:44;28.33;;;15.00;;
15526;SDS011;7865;50.918;4.510;2023-03-03T11:33:00;28.20;;;14.87;;
15526;SDS011;7865;50.918;4.510;2023-03-03T11:38:16;29.70;;;14.83;;
15526;SDS011;7865;50.918;4.510;2023-03-03T11:48:43;27.17;;;13.90;;
15526;SDS011;7865;50.918;4.510;2023-03-03T11:53:57;27.43;;;14.23;;
15526;SDS011;7865;50.918;4.510;2023-03-03T12:04:38;25.80;;;15.70;;
15526;SDS011;7865;50.918;4.510;2023-03-03T12:25:30;23.47;;;13.73;;
15526;SDS011;7865;50.918;4.510;2023-03-03T12:30:41;22.40;;;13.93;;
15526;SDS011;7865;50.918;4.510;2023-03-03T12:46:26;23.23;;;13.40;;
15526;SDS011;7865;50.918;4.510;2023-03-03T13:02:48;21.77;;;13.23;;
15526;SDS011;7865;50.918;4.510;2023-03-03T13:08:14;18.83;;;12.07;;
15526;SDS011;7865;50.918;4.510;2023-03-03T13:19:07;23.50;;;13.63;;
15526;SDS011;7865;50.918;4.510;2023-03-03T13:24:38;21.83;;;12.83;;
15526;SDS011;7865;50.918;4.510;2023-03-03T13:30:19;22.43;;;12.70;;
15526;SDS011;7865;50.918;4.510;2023-03-03T13:35:58;20.77;;;11.90;;
15526;SDS011;7865;50.918;4.510;2023-03-03T13:41:21;24.40;;;12.93;;
15526;SDS011;7865;50.918;4.510;2023-03-03T13:46:37;21.83;;;13.00;;
15526;SDS011;7865;50.918;4.510;2023-03-03T13:52:07;20.83;;;12.73;;
15526;SDS011;7865;50.918;4.510;2023-03-03T14:09:10;20.67;;;11.80;;
15526;SDS011;7865;50.918;4.510;2023-03-03T14:19:33;20.27;;;11.40;;
15526;SDS011;7865;50.918;4.510;2023-03-03T14:35:29;18.90;;;10.47;;
15526;SDS011;7865;50.918;4.510;2023-03-03T14:40:35;20.53;;;10.17;;
15526;SDS011;7865;50.918;4.510;2023-03-03T14:45:40;15.93;;;8.97;;
15526;SDS011;7865;50.918;4.510;2023-03-03T14:50:50;16.83;;;10.73;;
15526;SDS011;7865;50.918;4.510;2023-03-03T14:55:53;15.17;;;9.07;;
15526;SDS011;7865;50.918;4.510;2023-03-03T15:06:13;17.43;;;9.73;;
15526;SDS011;7865;50.918;4.510;2023-03-03T15:11:31;16.60;;;9.57;;
15526;SDS011;7865;50.918;4.510;2023-03-03T15:16:33;12.97;;;7.80;;
15526;SDS011;7865;50.918;4.510;2023-03-03T15:21:36;16.90;;;8.60;;
15526;SDS011;7865;50.918;4.510;2023-03-03T15:27:03;11.90;;;8.13;;
15526;SDS011;7865;50.918;4.510;2023-03-03T15:32:14;14.93;;;7.90;;
15526;SDS011;7865;50.918;4.510;2023-03-03T15:48:54;11.00;;;7.77;;
15526;SDS011;7865;50.918;4.510;2023-03-03T15:59:38;12.23;;;7.20;;
15526;SDS011;7865;50.918;4.510;2023-03-03T16:10:43;9.87;;;5.90;;
15526;SDS011;7865;50.918;4.510;2023-03-03T16:26:44;10.97;;;7.20;;
15526;SDS011;7865;50.918;4.510;2023-03-03T16:42:02;12.77;;;7.10;;
15526;SDS011;7865;50.918;4.510;2023-03-03T16:53:07;11.03;;;6.50;;
15526;SDS011;7865;50.918;4.510;2023-03-03T17:03:39;14.37;;;6.53;;
15526;SDS011;7865;50.918;4.510;2023-03-03T17:25:29;17.73;;;8.30;;
15526;SDS011;7865;50.918;4.510;2023-03-03T17:30:43;12.20;;;6.63;;
15526;SDS011;7865;50.918;4.510;2023-03-03T17:41:25;11.17;;;6.73;;
15526;SDS011;7865;50.918;4.510;2023-03-03T17:46:37;8.60;;;6.67;;
15526;SDS011;7865;50.918;4.510;2023-03-03T18:13:34;12.93;;;8.40;;
15526;SDS011;7865;50.918;4.510;2023-03-03T18:35:30;12.33;;;8.07;;
15526;SDS011;7865;50.918;4.510;2023-03-03T18:40:47;14.60;;;8.50;;
15526;SDS011;7865;50.918;4.510;2023-03-03T18:56:41;17.27;;;11.43;;
15526;SDS011;7865;50.918;4.510;2023-03-03T19:01:47;24.83;;;14.13;;
15526;SDS011;7865;50.918;4.510;2023-03-03T19:06:53;18.73;;;11.70;;
15526;SDS011;7865;50.918;4.510;2023-03-03T19:11:57;14.33;;;11.00;;
15526;SDS011;7865;50.918;4.510;2023-03-03T19:17:40;13.03;;;9.33;;
15526;SDS011;7865;50.918;4.510;2023-03-03T19:22:25;11.37;;;8.30;;
15526;SDS011;7865;50.918;4.510;2023-03-03T19:32:55;12.87;;;7.87;;
15526;SDS011;7865;50.918;4.510;2023-03-03T19:55:21;7.63;;;5.87;;
15526;SDS011;7865;50.918;4.510;2023-03-03T20:00:39;8.10;;;6.23;;
15526;SDS011;7865;50.918;4.510;2023-03-03T20:16:40;8.17;;;6.43;;
15526;SDS011;7865;50.918;4.510;2023-03-03T20:44:12;11.17;;;7.23;;
15526;SDS011;7865;50.918;4.510;2023-03-03T20:50:13;11.30;;;7.57;;
15526;SDS011;7865;50.918;4.510;2023-03-03T20:55:09;14.50;;;7.93;;
15526;SDS011;7865;50.918;4.510;2023-03-03T21:00:20;8.27;;;7.47;;
15526;SDS011;7865;50.918;4.510;2023-03-03T21:05:29;10.40;;;8.70;;
15526;SDS011;7865;50.918;4.510;2023-03-03T21:10:32;10.07;;;9.03;;
15526;SDS011;7865;50.918;4.510;2023-03-03T21:15:36;11.10;;;9.83;;
15526;SDS011;7865;50.918;4.510;2023-03-03T21:20:39;11.77;;;9.83;;
15526;SDS011;7865;50.918;4.510;2023-03-03T21:30:58;11.13;;;9.67;;
15526;SDS011;7865;50.918;4.510;2023-03-03T21:41:23;15.73;;;11.93;;
15526;SDS011;7865;50.918;4.510;2023-03-03T21:46:25;15.87;;;13.43;;
15526;SDS011;7865;50.918;4.510;2023-03-03T21:51:28;14.07;;;12.57;;
15526;SDS011;7865;50.918;4.510;2023-03-03T21:56:30;16.60;;;13.23;;
15526;SDS011;7865;50.918;4.510;2023-03-03T22:01:33;15.57;;;12.30;;
15526;SDS011;7865;50.918;4.510;2023-03-03T22:06:38;15.40;;;13.80;;
15526;SDS011;7865;50.918;4.510;2023-03-03T22:11:41;15.53;;;12.50;;
15526;SDS011;7865;50.918;4.510;2023-03-03T22:16:42;14.47;;;12.50;;
15526;SDS011;7865;50.918;4.510;2023-03-03T22:21:44;15.50;;;12.23;;
15526;SDS011;7865;50.918;4.510;2023-03-03T22:26:47;15.33;;;12.73;;
15526;SDS011;7865;50.918;4.510;2023-03-03T22:31:49;15.53;;;11.67;;
15526;SDS011;7865;50.918;4.510;2023-03-03T22:36:53;14.13;;;10.53;;
15526;SDS011;7865;50.918;4.510;2023-03-03T22:41:55;14.70;;;10.37;;
15526;SDS011;7865;50.918;4.510;2023-03-03T22:46:57;13.17;;;9.73;;
15526;SDS011;7865;50.918;4.510;2023-03-03T22:51:59;12.03;;;10.67;;
15526;SDS011;7865;50.918;4.510;2023-03-03T22:57:03;12.93;;;10.73;;
15526;SDS011;7865;50.918;4.510;2023-03-03T23:02:05;11.50;;;10.03;;
15526;SDS011;7865;50.918;4.510;2023-03-03T23:07:07;16.97;;;10.10;;
15526;SDS011;7865;50.918;4.510;2023-03-03T23:12:09;12.20;;;9.40;;
15526;SDS011;7865;50.918;4.510;2023-03-03T23:17:11;12.93;;;7.77;;
15526;SDS011;7865;50.918;4.510;2023-03-03T23:22:14;15.23;;;7.27;;
15526;SDS011;7865;50.918;4.510;2023-03-03T23:27:17;19.73;;;8.40;;
15526;SDS011;7865;50.918;4.510;2023-03-03T23:32:19;19.27;;;8.63;;
15526;SDS011;7865;50.918;4.510;2023-03-03T23:37:25;13.97;;;9.33;;
15526;SDS011;7865;50.918;4.510;2023-03-03T23:42:27;15.00;;;10.33;;
15526;SDS011;7865;50.918;4.510;2023-03-03T23:47:31;17.93;;;9.93;;
15526;SDS011;7865;50.918;4.510;2023-03-03T23:52:33;16.63;;;9.90;;
15526;SDS011;7865;50.918;4.510;2023-03-03T23:57:35;17.87;;;9.03;;
